EPWR

Copernicus Wrocław Airport

Wrocław, Poland
TAF EPWR 172330Z 1800/1824 VRB03KT 3000 BR NSC TEMPO 1800/1808 0800 FG PROB40 1800/1806 0300 FG BKN003 BECMG 1814/1816 33010KT 3000 -RA BKN013 TEMPO 1818/1821 1500 -RASN BKN005
Issued Valid From Valid To
Nov-17 @ 23:30 UTC
(2 hours ago)
Nov-18 @ 00:00 UTC
(2 hours ago)
Nov-19 @ 00:00 UTC
(in 22 hours)
Nov-18 @ 00:00 to Nov-18 @ 14:00
TAF EPWR 172330Z 1800/1824 VRB03KT 3000 BR NSC
Wind Visibility Clouds Conditions
Variable at 3 knots 2,993 meters
  • No significant clouds
  • Mist
Probable  (Probability 40%) Nov-18 @ 00:00 to Nov-18 @ 06:00
PROB40 1800/1806 0300 FG BKN003
Visibility Clouds Conditions
306 meters
  • Broken at 300' AGL
  • Fog
Temporary Nov-18 @ 00:00 to Nov-18 @ 08:00
TEMPO 1800/1808 0800 FG
Visibility Conditions
805 meters
  • Fog
Becoming Nov-18 @ 14:00 to Nov-19 @ 00:00
BECMG 1814/1816 33010KT 3000 -RA BKN013
Wind Visibility Clouds Conditions
330° at 10 knots 2,993 meters
  • Broken at 1,300' AGL
  • Light Rain
Temporary Nov-18 @ 18:00 to Nov-18 @ 21:00
TEMPO 1818/1821 1500 -RASN BKN005
Visibility Clouds Conditions
1,497 meters
  • Broken at 500' AGL
  • Light Rain
  • Light Snow
TAF EPWR 172330Z 1800/1824 VRB03KT 3000 BR NSC TEMPO 1800/1808 0800 FG PROB40 1800/1806 0300 FG BKN003 BECMG 1814/1816 33010KT 3000 -RA BKN013 TEMPO 1818/1821 1500 -RASN BKN005
Issued Nov-17 @ 23:30 UTC
(2 hours ago)
Valid From Nov-18 @ 00:00 UTC
(2 hours ago)
Valid To Nov-19 @ 00:00 UTC
(in 22 hours)
Nov-18 @ 00:00 - Nov-18 @ 14:00
Wind Visibility
Variable at 3 knots 2,993 meters
Clouds
  • No significant clouds
Conditions
  • Mist
Probability 40% Probable Nov-18 @ 00:00 - Nov-18 @ 06:00
Clouds
  • Broken at 300' AGL
Conditions
  • Fog
Temporary Nov-18 @ 00:00 - Nov-18 @ 08:00
Conditions
  • Fog
Becoming Nov-18 @ 14:00 - Nov-19 @ 00:00
Wind Visibility
330° at 10 knots 2,993 meters
Clouds
  • Broken at 1,300' AGL
Conditions
  • Light Rain
Temporary Nov-18 @ 18:00 - Nov-18 @ 21:00
Clouds
  • Broken at 500' AGL
Conditions
  • Light Rain
  • Light Snow